createdAt,value
2017-12-23T00:00:18.375Z,95.31
2017-12-23T00:01:20.896Z,95.45
2017-12-23T00:02:23.481Z,95.78
2017-12-23T00:03:25.989Z,95.85
2017-12-23T00:04:28.465Z,96.06
2017-12-23T00:05:30.952Z,96.48
2017-12-23T00:06:33.432Z,96.81
2017-12-23T00:07:35.914Z,96.79
2017-12-23T00:08:38.500Z,97.04
2017-12-23T00:09:41.071Z,97.02
2017-12-23T00:10:43.576Z,96.96
2017-12-23T00:11:46.120Z,97.01
2017-12-23T00:12:48.640Z,96.83
2017-12-23T00:13:51.160Z,96.58
2017-12-23T00:14:53.663Z,96.22
2017-12-23T00:15:56.214Z,96.07
2017-12-23T00:16:58.670Z,96.15
2017-12-23T00:18:01.130Z,96.31
2017-12-23T00:19:03.658Z,96.48
2017-12-23T00:20:06.150Z,96.55
2017-12-23T00:21:08.713Z,96.57
2017-12-23T00:22:11.202Z,96.73
2017-12-23T00:23:13.706Z,96.57
2017-12-23T00:24:16.235Z,96.43
2017-12-23T00:25:18.710Z,96.39
2017-12-23T00:26:21.234Z,96.71
2017-12-23T00:27:23.720Z,96.82
2017-12-23T00:28:26.219Z,97.09
2017-12-23T00:29:28.742Z,97.00
2017-12-23T00:30:31.231Z,96.97
2017-12-23T00:31:33.731Z,96.96
2017-12-23T00:32:36.233Z,96.96
2017-12-23T00:33:38.709Z,96.67
2017-12-23T00:34:41.204Z,96.57
2017-12-23T00:35:43.693Z,96.62
2017-12-23T00:36:46.183Z,96.78
2017-12-23T00:37:48.670Z,96.99
2017-12-23T00:38:51.312Z,97.07
2017-12-23T00:39:53.832Z,96.66
2017-12-23T00:40:56.384Z,96.29
2017-12-23T00:41:58.904Z,96.51
2017-12-23T00:43:01.560Z,96.53
2017-12-23T00:44:04.081Z,96.59
2017-12-23T00:45:06.563Z,96.59
2017-12-23T00:46:09.034Z,96.54
2017-12-23T00:47:11.565Z,96.45
2017-12-23T00:48:14.038Z,95.40
2017-12-23T00:49:16.563Z,94.97
2017-12-23T00:50:19.077Z,95.07
2017-12-23T00:51:21.562Z,94.93
2017-12-23T00:52:24.078Z,94.76
2017-12-23T00:53:26.558Z,95.03
2017-12-23T00:54:29.034Z,95.12
2017-12-23T00:55:31.541Z,95.36
2017-12-23T00:56:34.025Z,95.57
2017-12-23T00:57:36.539Z,95.88
2017-12-23T00:58:39.132Z,95.97
2017-12-23T00:59:41.622Z,95.76
2017-12-23T01:00:44.122Z,95.66
2017-12-23T01:01:46.683Z,95.84
2017-12-23T01:02:49.209Z,95.81
2017-12-23T01:03:51.744Z,95.21
2017-12-23T01:04:54.364Z,94.74
2017-12-23T01:05:56.964Z,94.95
2017-12-23T01:06:59.529Z,95.35
2017-12-23T01:08:02.000Z,95.48
2017-12-23T01:09:04.479Z,95.53
2017-12-23T01:10:06.956Z,95.20
2017-12-23T01:11:09.629Z,94.86
2017-12-23T01:12:12.113Z,95.19
2017-12-23T01:13:14.608Z,95.18
2017-12-23T01:14:17.079Z,95.06
2017-12-23T01:15:19.662Z,94.84
2017-12-23T01:16:22.151Z,95.19
2017-12-23T01:17:24.637Z,95.27
2017-12-23T01:18:27.133Z,95.65
2017-12-23T01:19:29.619Z,95.16
2017-12-23T01:20:32.968Z,94.61
2017-12-23T01:21:35.516Z,94.48
2017-12-23T01:22:37.986Z,94.88
2017-12-23T01:23:40.480Z,95.03
2017-12-23T01:24:42.966Z,95.10
2017-12-23T01:25:45.465Z,95.43
2017-12-23T01:26:48.046Z,94.83
2017-12-23T01:27:50.522Z,94.75
2017-12-23T01:28:52.999Z,94.81
2017-12-23T01:29:55.498Z,94.99
2017-12-23T01:30:57.976Z,94.46
2017-12-23T01:32:00.510Z,94.07
2017-12-23T01:33:02.978Z,94.01
2017-12-23T01:34:05.632Z,93.84
2017-12-23T01:35:08.136Z,93.65
2017-12-23T01:36:10.742Z,93.89
2017-12-23T01:37:13.274Z,94.00
2017-12-23T01:38:15.806Z,93.72
2017-12-23T01:39:18.314Z,93.59
2017-12-23T01:40:20.956Z,93.75
2017-12-23T01:41:23.603Z,94.34
2017-12-23T01:42:26.128Z,94.41
2017-12-23T01:43:28.743Z,93.81
2017-12-23T01:44:31.292Z,93.67
2017-12-23T01:45:33.834Z,93.68
2017-12-23T01:46:36.311Z,94.17
2017-12-23T01:47:38.812Z,94.42
2017-12-23T01:48:41.270Z,93.99
2017-12-23T01:49:43.756Z,93.54
2017-12-23T01:50:46.330Z,93.87
2017-12-23T01:51:48.844Z,94.10
2017-12-23T01:52:51.384Z,94.25
2017-12-23T01:53:53.865Z,94.36
2017-12-23T01:54:56.371Z,94.56
2017-12-23T01:55:58.856Z,94.66
2017-12-23T01:57:01.327Z,94.71
2017-12-23T01:58:03.830Z,94.65
2017-12-23T01:59:06.306Z,94.62
2017-12-23T02:00:08.810Z,94.74
2017-12-23T02:01:11.285Z,94.72
2017-12-23T02:02:13.790Z,94.74
2017-12-23T02:03:16.358Z,94.69
2017-12-23T02:04:18.836Z,94.63
2017-12-23T02:05:21.316Z,94.81
2017-12-23T02:06:23.795Z,94.79
2017-12-23T02:07:26.280Z,95.28
2017-12-23T02:08:28.766Z,95.34
2017-12-23T02:09:31.256Z,95.12
2017-12-23T02:10:33.725Z,94.95
2017-12-23T02:11:36.248Z,94.54
2017-12-23T02:12:38.823Z,94.66
2017-12-23T02:13:41.324Z,94.66
2017-12-23T02:14:43.783Z,94.67
2017-12-23T02:15:46.257Z,94.81
2017-12-23T02:16:48.723Z,95.04
2017-12-23T02:17:51.205Z,95.29
2017-12-23T02:18:53.702Z,95.36
2017-12-23T02:19:56.181Z,95.00
2017-12-23T02:20:58.656Z,94.94
2017-12-23T02:22:01.113Z,94.84
2017-12-23T02:23:03.589Z,94.95
2017-12-23T02:24:06.100Z,94.87
2017-12-23T02:25:08.566Z,95.09
2017-12-23T02:26:11.041Z,95.10
2017-12-23T02:27:13.498Z,95.19
2017-12-23T02:28:15.975Z,95.30
2017-12-23T02:29:18.474Z,95.59
2017-12-23T02:30:20.954Z,95.87
2017-12-23T02:31:23.414Z,95.14
2017-12-23T02:32:25.898Z,94.70
2017-12-23T02:33:28.366Z,94.50
2017-12-23T02:34:30.859Z,94.46
2017-12-23T02:35:33.337Z,94.24
2017-12-23T02:36:35.819Z,94.44
2017-12-23T02:37:38.356Z,94.61
2017-12-23T02:38:40.832Z,94.69
2017-12-23T02:39:43.329Z,94.88
2017-12-23T02:40:45.803Z,95.01
2017-12-23T02:41:49.407Z,95.09
2017-12-23T02:42:51.889Z,95.10
2017-12-23T02:43:54.351Z,95.17
2017-12-23T02:44:56.877Z,95.11
2017-12-23T02:45:59.354Z,95.09
2017-12-23T02:47:01.847Z,95.11
2017-12-23T02:48:04.306Z,95.24
2017-12-23T02:49:06.783Z,95.25
2017-12-23T02:50:09.286Z,95.21
2017-12-23T02:51:11.761Z,95.33
2017-12-23T02:52:14.223Z,95.48
2017-12-23T02:53:16.708Z,95.67
2017-12-23T02:54:19.166Z,95.97
2017-12-23T02:55:21.664Z,96.06
2017-12-23T02:56:24.126Z,96.07
2017-12-23T02:57:26.617Z,96.30
2017-12-23T02:58:29.084Z,95.93
2017-12-23T02:59:31.560Z,95.83
2017-12-23T03:00:34.043Z,95.82
2017-12-23T03:01:36.517Z,95.91
2017-12-23T03:02:38.992Z,95.91
2017-12-23T03:03:41.468Z,95.63
2017-12-23T03:04:43.930Z,95.22
2017-12-23T03:05:46.406Z,95.17
2017-12-23T03:06:48.870Z,95.18
2017-12-23T03:07:51.330Z,95.12
2017-12-23T03:08:53.790Z,95.32
2017-12-23T03:09:56.245Z,95.28
2017-12-23T03:10:58.722Z,95.06
2017-12-23T03:12:01.200Z,94.87
2017-12-23T03:13:03.664Z,95.13
2017-12-23T03:14:06.143Z,95.39
2017-12-23T03:15:08.604Z,95.44
2017-12-23T03:16:11.103Z,95.54
2017-12-23T03:17:13.558Z,95.65
2017-12-23T03:18:16.030Z,95.65
2017-12-23T03:19:18.508Z,95.71
2017-12-23T03:20:20.983Z,95.75
2017-12-23T03:21:23.469Z,95.80
2017-12-23T03:22:25.930Z,95.76
2017-12-23T03:23:28.390Z,95.84
2017-12-23T03:24:30.872Z,95.96
2017-12-23T03:25:33.338Z,95.98
2017-12-23T03:26:35.836Z,95.89
2017-12-23T03:27:38.307Z,95.89
2017-12-23T03:28:40.766Z,95.73
2017-12-23T03:29:43.222Z,95.74
2017-12-23T03:30:45.683Z,95.70
2017-12-23T03:31:49.398Z,95.85
2017-12-23T03:32:51.869Z,95.77
2017-12-23T03:33:54.344Z,95.70
2017-12-23T03:34:56.823Z,95.84
2017-12-23T03:35:59.286Z,95.84
2017-12-23T03:37:01.762Z,95.72
2017-12-23T03:38:04.225Z,95.66
2017-12-23T03:39:06.684Z,95.82
2017-12-23T03:40:09.168Z,95.87
2017-12-23T03:41:11.626Z,95.84
2017-12-23T03:42:14.128Z,95.97
2017-12-23T03:43:16.590Z,95.44
2017-12-23T03:44:19.069Z,95.24
2017-12-23T03:45:21.534Z,95.23
2017-12-23T03:46:23.998Z,95.32
2017-12-23T03:47:26.491Z,95.41
2017-12-23T03:48:28.972Z,95.29
2017-12-23T03:49:31.439Z,94.89
2017-12-23T03:50:33.905Z,94.75
2017-12-23T03:51:36.379Z,94.81
2017-12-23T03:52:38.870Z,94.88
2017-12-23T03:53:41.343Z,94.40
2017-12-23T03:54:43.806Z,94.46
2017-12-23T03:55:46.300Z,94.49
2017-12-23T03:56:48.762Z,94.27
2017-12-23T03:57:52.445Z,94.21
2017-12-23T03:58:54.922Z,93.67
2017-12-23T03:59:57.386Z,93.59
2017-12-23T04:00:59.846Z,94.10
2017-12-23T04:02:02.335Z,94.08
2017-12-23T04:03:04.826Z,93.39
2017-12-23T04:04:07.286Z,93.00
2017-12-23T04:05:09.747Z,93.16
2017-12-23T04:06:12.235Z,93.25
2017-12-23T04:07:14.724Z,93.24
2017-12-23T04:08:17.208Z,93.54
2017-12-23T04:09:19.671Z,93.31
2017-12-23T04:10:22.148Z,93.63
2017-12-23T04:11:24.623Z,93.07
2017-12-23T04:12:27.091Z,93.12
2017-12-23T04:13:30.191Z,93.30
2017-12-23T04:14:32.655Z,93.42
2017-12-23T04:15:35.115Z,93.44
2017-12-23T04:16:37.588Z,92.75
2017-12-23T04:17:40.076Z,92.86
2017-12-23T04:18:42.576Z,92.35
2017-12-23T04:19:45.038Z,92.08
2017-12-23T04:20:47.494Z,92.40
2017-12-23T04:21:49.959Z,92.10
2017-12-23T04:22:52.419Z,92.22
2017-12-23T04:23:54.912Z,92.42
2017-12-23T04:24:57.367Z,92.74
2017-12-23T04:25:59.836Z,93.11
2017-12-23T04:27:02.295Z,92.97
2017-12-23T04:28:04.783Z,92.70
2017-12-23T04:29:07.280Z,93.18
2017-12-23T04:30:09.763Z,92.75
2017-12-23T04:31:12.217Z,92.89
2017-12-23T04:32:14.725Z,92.86
2017-12-23T04:33:17.181Z,92.67
2017-12-23T04:34:19.670Z,92.83
2017-12-23T04:35:22.222Z,92.17
2017-12-23T04:36:24.708Z,92.08
2017-12-23T04:37:27.182Z,92.24
2017-12-23T04:38:29.640Z,92.13
2017-12-23T04:39:32.136Z,91.67
2017-12-23T04:40:34.614Z,91.71
2017-12-23T04:41:37.082Z,91.86
2017-12-23T04:42:39.543Z,92.10
2017-12-23T04:43:42.016Z,92.19
2017-12-23T04:44:44.516Z,92.23
2017-12-23T04:45:46.978Z,92.56
2017-12-23T04:46:49.442Z,92.55
2017-12-23T04:47:51.906Z,92.62
2017-12-23T04:48:54.413Z,92.01
2017-12-23T04:49:56.894Z,91.88
2017-12-23T04:50:59.393Z,91.71
2017-12-23T04:52:01.867Z,91.37
2017-12-23T04:53:04.389Z,91.62
2017-12-23T04:54:06.850Z,91.73
2017-12-23T04:55:09.358Z,92.27
2017-12-23T04:56:11.836Z,92.29
2017-12-23T04:57:14.308Z,91.69
2017-12-23T04:58:16.777Z,91.38
2017-12-23T04:59:19.265Z,91.71
2017-12-23T05:00:21.746Z,91.93
2017-12-23T05:01:24.211Z,91.84
2017-12-23T05:02:26.688Z,91.82
2017-12-23T05:03:29.151Z,91.87
2017-12-23T05:04:31.628Z,92.06
2017-12-23T05:05:34.106Z,92.00
2017-12-23T05:06:36.564Z,91.89
2017-12-23T05:07:39.022Z,92.28
2017-12-23T05:08:41.497Z,92.34
2017-12-23T05:09:43.964Z,91.93
2017-12-23T05:10:46.456Z,91.65
2017-12-23T05:11:48.931Z,91.53
2017-12-23T05:12:51.398Z,91.68
2017-12-23T05:13:53.872Z,91.95
2017-12-23T05:14:56.337Z,92.11
2017-12-23T05:15:58.869Z,92.17
2017-12-23T05:17:01.381Z,92.35
2017-12-23T05:18:03.878Z,92.23
2017-12-23T05:19:06.356Z,91.76
2017-12-23T05:20:08.839Z,91.82
2017-12-23T05:21:11.322Z,92.10
2017-12-23T05:22:13.790Z,91.88
2017-12-23T05:23:16.249Z,91.78
2017-12-23T05:24:18.710Z,91.93
2017-12-23T05:25:21.170Z,91.92
2017-12-23T05:26:23.656Z,91.95
2017-12-23T05:27:26.132Z,92.16
2017-12-23T05:28:28.594Z,91.92
2017-12-23T05:29:31.050Z,91.59
2017-12-23T05:30:33.525Z,91.59
2017-12-23T05:31:36.020Z,91.73
2017-12-23T05:32:38.496Z,91.98
2017-12-23T05:33:40.981Z,92.58
2017-12-23T05:34:43.446Z,93.52
2017-12-23T05:35:45.920Z,92.81
2017-12-23T05:36:48.419Z,92.42
2017-12-23T05:37:50.900Z,92.30
2017-12-23T05:38:53.358Z,92.13
2017-12-23T05:39:55.831Z,92.08
2017-12-23T05:40:58.289Z,91.99
2017-12-23T05:42:00.788Z,91.99
2017-12-23T05:43:03.265Z,92.02
2017-12-23T05:44:05.727Z,92.08
2017-12-23T05:45:08.189Z,92.07
2017-12-23T05:46:10.668Z,92.03
2017-12-23T05:47:13.172Z,92.13
2017-12-23T05:48:15.657Z,91.95
2017-12-23T05:49:18.141Z,92.03
2017-12-23T05:50:20.602Z,92.16
2017-12-23T05:51:23.062Z,92.21
2017-12-23T05:52:25.546Z,92.31
2017-12-23T05:53:28.033Z,92.55
2017-12-23T05:54:30.519Z,92.61
2017-12-23T05:55:32.996Z,92.58
2017-12-23T05:56:35.458Z,92.47
2017-12-23T05:57:37.969Z,92.47
2017-12-23T05:58:40.426Z,92.33
2017-12-23T05:59:42.884Z,92.26
2017-12-23T06:00:45.364Z,92.24
2017-12-23T06:01:47.826Z,92.42
2017-12-23T06:02:50.301Z,92.24
2017-12-23T06:03:52.766Z,92.40
2017-12-23T06:04:55.223Z,92.56
2017-12-23T06:05:57.704Z,92.56
2017-12-23T06:07:00.193Z,92.76
2017-12-23T06:08:02.692Z,93.05
2017-12-23T06:09:05.150Z,93.21
2017-12-23T06:10:07.625Z,93.30
2017-12-23T06:11:10.093Z,93.51
2017-12-23T06:12:12.557Z,93.66
2017-12-23T06:13:15.052Z,93.69
2017-12-23T06:14:17.534Z,93.86
2017-12-23T06:15:20.009Z,93.91
2017-12-23T06:16:22.468Z,94.02
2017-12-23T06:17:24.926Z,94.17
2017-12-23T06:18:27.411Z,94.34
2017-12-23T06:19:29.892Z,94.51
2017-12-23T06:20:32.372Z,94.70
2017-12-23T06:21:34.830Z,94.69
2017-12-23T06:22:37.320Z,94.66
2017-12-23T06:23:39.814Z,94.68
2017-12-23T06:24:42.274Z,94.67
2017-12-23T06:25:44.738Z,94.49
2017-12-23T06:26:47.209Z,94.63
2017-12-23T06:27:49.691Z,94.46
2017-12-23T06:28:52.188Z,94.37
2017-12-23T06:29:54.701Z,94.61
2017-12-23T06:30:57.162Z,94.45
2017-12-23T06:31:59.645Z,94.73
2017-12-23T06:33:02.120Z,94.57
2017-12-23T06:34:04.608Z,94.74
2017-12-23T06:35:07.074Z,94.80
2017-12-23T06:36:09.588Z,94.82
2017-12-23T06:37:12.049Z,94.90
2017-12-23T06:38:14.895Z,94.95
2017-12-23T06:39:17.393Z,94.82
2017-12-23T06:40:19.860Z,94.77
2017-12-23T06:41:22.356Z,94.85
2017-12-23T06:42:24.844Z,94.85
2017-12-23T06:43:27.421Z,94.97
2017-12-23T06:44:29.916Z,94.96
2017-12-23T06:45:32.412Z,94.94
2017-12-23T06:46:34.874Z,94.90
2017-12-23T06:47:37.335Z,94.86
2017-12-23T06:48:39.818Z,94.96
2017-12-23T06:49:42.310Z,95.12
2017-12-23T06:50:44.770Z,95.29
2017-12-23T06:51:47.244Z,95.39
2017-12-23T06:52:49.716Z,95.42
2017-12-23T06:53:52.174Z,95.45
2017-12-23T06:54:54.687Z,95.53
2017-12-23T06:55:57.166Z,95.72
2017-12-23T06:56:59.664Z,95.69
2017-12-23T06:58:02.156Z,95.63
2017-12-23T06:59:04.618Z,95.62
2017-12-23T07:00:07.124Z,95.59
2017-12-23T07:01:09.593Z,95.62
2017-12-23T07:02:12.395Z,95.70
2017-12-23T07:03:14.880Z,95.77
2017-12-23T07:04:17.356Z,95.74
2017-12-23T07:05:19.849Z,95.74
2017-12-23T07:06:22.371Z,95.69
2017-12-23T07:07:24.828Z,95.60
2017-12-23T07:08:27.294Z,95.46
2017-12-23T07:09:29.784Z,95.62
2017-12-23T07:10:32.284Z,95.62
2017-12-23T07:11:34.761Z,95.63
2017-12-23T07:12:37.214Z,95.54
2017-12-23T07:13:39.726Z,95.46
2017-12-23T07:14:42.196Z,95.52
2017-12-23T07:15:44.697Z,95.56
2017-12-23T07:16:47.160Z,95.59
2017-12-23T07:17:49.635Z,95.47
2017-12-23T07:18:52.112Z,95.42
2017-12-23T07:19:54.590Z,95.21
2017-12-23T07:20:57.082Z,95.19
2017-12-23T07:21:59.556Z,95.25
2017-12-23T07:23:02.020Z,94.79
2017-12-23T07:24:04.505Z,94.83
2017-12-23T07:25:06.964Z,94.83
2017-12-23T07:26:09.473Z,94.71
2017-12-23T07:27:11.930Z,94.39
2017-12-23T07:28:14.415Z,94.24
2017-12-23T07:29:16.921Z,94.04
2017-12-23T07:30:19.486Z,93.90
2017-12-23T07:31:21.981Z,93.73
2017-12-23T07:32:24.506Z,93.77
2017-12-23T07:33:26.970Z,93.64
2017-12-23T07:34:29.434Z,93.41
2017-12-23T07:35:31.911Z,93.13
2017-12-23T07:36:34.420Z,93.15
2017-12-23T07:37:36.912Z,93.19
2017-12-23T07:38:39.424Z,92.94
2017-12-23T07:39:41.908Z,92.85
2017-12-23T07:40:44.392Z,92.72
2017-12-23T07:41:46.889Z,92.71
2017-12-23T07:42:49.358Z,92.63
2017-12-23T07:43:51.840Z,92.55
2017-12-23T07:44:54.348Z,92.65
2017-12-23T07:45:56.816Z,92.40
2017-12-23T07:46:59.313Z,92.20
2017-12-23T07:48:01.779Z,92.36
2017-12-23T07:49:04.261Z,92.73
2017-12-23T07:50:06.730Z,92.57
2017-12-23T07:51:09.214Z,92.61
2017-12-23T07:52:11.695Z,92.47
2017-12-23T07:53:14.169Z,92.88
2017-12-23T07:54:16.652Z,92.81
2017-12-23T07:55:19.107Z,92.41
2017-12-23T07:56:21.568Z,92.31
2017-12-23T07:57:24.420Z,91.96
2017-12-23T07:58:26.925Z,92.20
2017-12-23T07:59:29.437Z,92.17
2017-12-23T08:00:31.912Z,92.17
2017-12-23T08:01:34.384Z,91.65
2017-12-23T08:02:36.872Z,91.79
2017-12-23T08:03:39.354Z,91.75
2017-12-23T08:04:41.828Z,91.37
2017-12-23T08:05:44.305Z,91.46
2017-12-23T08:06:46.766Z,91.31
2017-12-23T08:07:49.250Z,91.26
2017-12-23T08:08:51.725Z,91.33
2017-12-23T08:09:54.194Z,91.19
2017-12-23T08:10:56.668Z,90.98
2017-12-23T08:11:59.188Z,91.02
2017-12-23T08:13:01.666Z,91.34
2017-12-23T08:14:04.139Z,90.21
2017-12-23T08:15:06.620Z,90.29
2017-12-23T08:16:09.108Z,90.41
2017-12-23T08:17:11.580Z,90.35
2017-12-23T08:18:14.077Z,90.63
2017-12-23T08:19:16.555Z,91.19
2017-12-23T08:20:19.014Z,91.56
2017-12-23T08:21:21.479Z,91.48
2017-12-23T08:22:23.948Z,91.09
2017-12-23T08:23:26.439Z,90.77
2017-12-23T08:24:28.916Z,90.79
2017-12-23T08:25:31.403Z,90.53
2017-12-23T08:26:33.890Z,90.53
2017-12-23T08:27:36.346Z,90.78
2017-12-23T08:28:38.826Z,91.24
2017-12-23T08:29:41.295Z,90.84
2017-12-23T08:30:43.769Z,90.97
2017-12-23T08:31:46.226Z,90.83
2017-12-23T08:32:48.705Z,90.90
2017-12-23T08:33:51.182Z,90.60
2017-12-23T08:34:54.003Z,90.82
2017-12-23T08:35:56.569Z,90.97
2017-12-23T08:36:59.033Z,91.00
2017-12-23T08:38:01.513Z,91.10
2017-12-23T08:39:04.013Z,91.30
2017-12-23T08:40:06.489Z,91.37
2017-12-23T08:41:08.969Z,91.66
2017-12-23T08:42:11.440Z,91.52
2017-12-23T08:43:13.910Z,91.36
2017-12-23T08:44:16.390Z,91.13
2017-12-23T08:45:18.866Z,91.21
2017-12-23T08:46:21.336Z,91.41
2017-12-23T08:47:23.794Z,91.42
2017-12-23T08:48:26.249Z,91.43
2017-12-23T08:49:28.730Z,91.83
2017-12-23T08:50:31.199Z,91.91
2017-12-23T08:51:33.671Z,91.22
2017-12-23T08:52:36.154Z,91.10
2017-12-23T08:53:38.614Z,91.15
2017-12-23T08:54:41.145Z,91.28
2017-12-23T08:55:43.582Z,91.36
2017-12-23T08:56:46.061Z,91.47
2017-12-23T08:57:48.527Z,91.62
2017-12-23T08:58:50.983Z,91.65
2017-12-23T08:59:53.482Z,91.95
2017-12-23T09:00:55.965Z,91.94
2017-12-23T09:01:58.437Z,92.00
2017-12-23T09:03:00.912Z,92.31
2017-12-23T09:04:03.366Z,92.58
2017-12-23T09:05:05.861Z,92.34
2017-12-23T09:06:08.346Z,92.58
2017-12-23T09:07:10.874Z,92.53
2017-12-23T09:08:13.313Z,92.59
2017-12-23T09:09:15.825Z,92.50
2017-12-23T09:10:18.352Z,92.74
2017-12-23T09:11:20.824Z,92.71
2017-12-23T09:12:23.296Z,92.57
2017-12-23T09:13:25.776Z,92.67
2017-12-23T09:14:28.252Z,92.81
2017-12-23T09:15:30.729Z,92.79
2017-12-23T09:16:33.187Z,92.93
2017-12-23T09:17:35.668Z,92.88
2017-12-23T09:18:38.141Z,93.00
2017-12-23T09:19:40.595Z,93.12
2017-12-23T09:20:43.079Z,92.95
2017-12-23T09:21:45.552Z,93.05
2017-12-23T09:22:48.044Z,93.00
2017-12-23T09:23:50.539Z,93.12
2017-12-23T09:24:52.995Z,93.00
2017-12-23T09:25:55.482Z,92.97
2017-12-23T09:26:57.942Z,92.85
2017-12-23T09:28:00.415Z,92.79
2017-12-23T09:29:02.892Z,92.63
2017-12-23T09:30:05.369Z,92.66
2017-12-23T09:31:07.846Z,92.64
2017-12-23T09:32:10.321Z,92.63
2017-12-23T09:33:12.784Z,92.64
2017-12-23T09:34:15.257Z,92.64
2017-12-23T09:35:17.728Z,92.57
2017-12-23T09:36:20.220Z,92.73
2017-12-23T09:37:22.693Z,92.88
2017-12-23T09:38:25.153Z,92.94
2017-12-23T09:39:27.633Z,92.57
2017-12-23T09:40:30.271Z,92.60
2017-12-23T09:41:32.806Z,92.39
2017-12-23T09:42:35.262Z,92.47
2017-12-23T09:43:37.740Z,92.51
2017-12-23T09:44:40.194Z,92.60
2017-12-23T09:45:42.654Z,92.60
2017-12-23T09:46:45.164Z,92.44
2017-12-23T09:47:47.627Z,92.28
2017-12-23T09:48:50.091Z,92.46
2017-12-23T09:49:52.562Z,92.55
2017-12-23T09:50:55.030Z,92.71
2017-12-23T09:51:57.536Z,92.70
2017-12-23T09:53:00.021Z,92.55
2017-12-23T09:54:02.498Z,92.71
2017-12-23T09:55:04.991Z,92.63
2017-12-23T09:56:07.461Z,92.75
2017-12-23T09:57:09.964Z,93.07
2017-12-23T09:58:12.426Z,93.17
2017-12-23T09:59:14.899Z,92.73
2017-12-23T10:00:17.369Z,92.54
2017-12-23T10:01:19.829Z,92.50
2017-12-23T10:02:22.306Z,92.43
2017-12-23T10:03:24.778Z,92.36
2017-12-23T10:04:27.238Z,92.50
2017-12-23T10:05:29.720Z,92.54
2017-12-23T10:06:32.186Z,92.46
2017-12-23T10:07:34.708Z,92.64
2017-12-23T10:08:37.192Z,92.71
2017-12-23T10:09:39.675Z,92.66
2017-12-23T10:10:42.146Z,92.67
2017-12-23T10:11:44.622Z,93.01
2017-12-23T10:12:47.102Z,93.00
2017-12-23T10:13:49.642Z,92.76
2017-12-23T10:14:52.120Z,93.04
2017-12-23T10:15:54.578Z,93.02
2017-12-23T10:16:57.042Z,93.02
2017-12-23T10:17:59.549Z,92.96
2017-12-23T10:19:02.022Z,92.72
2017-12-23T10:20:04.496Z,92.86
2017-12-23T10:21:06.992Z,92.70
2017-12-23T10:22:09.526Z,92.90
2017-12-23T10:23:12.022Z,92.61
2017-12-23T10:24:14.492Z,92.48
2017-12-23T10:25:16.969Z,92.36
2017-12-23T10:26:19.446Z,92.41
2017-12-23T10:27:21.928Z,92.37
2017-12-23T10:28:24.424Z,92.26
2017-12-23T10:29:26.904Z,92.39
2017-12-23T10:30:29.381Z,92.61
2017-12-23T10:31:31.863Z,92.68
2017-12-23T10:32:34.343Z,92.56
2017-12-23T10:33:36.837Z,92.63
2017-12-23T10:34:39.312Z,92.93
2017-12-23T10:35:41.770Z,92.97
2017-12-23T10:36:44.248Z,92.76
2017-12-23T10:37:46.715Z,92.88
2017-12-23T10:38:49.234Z,92.88
2017-12-23T10:39:51.722Z,92.68
2017-12-23T10:40:54.204Z,92.64
2017-12-23T10:41:56.739Z,92.60
2017-12-23T10:42:59.236Z,92.44
2017-12-23T10:44:01.765Z,92.23
2017-12-23T10:45:04.248Z,92.11
2017-12-23T10:46:06.801Z,92.09
2017-12-23T10:47:09.268Z,92.13
2017-12-23T10:48:12.230Z,91.98
2017-12-23T10:49:14.750Z,91.80
2017-12-23T10:50:17.226Z,91.83
2017-12-23T10:51:19.682Z,91.89
2017-12-23T10:52:22.160Z,91.84
2017-12-23T10:53:24.618Z,91.91
2017-12-23T10:54:27.156Z,91.80
2017-12-23T10:55:29.618Z,91.87
2017-12-23T10:56:32.078Z,91.92
2017-12-23T10:57:34.551Z,91.92
2017-12-23T10:58:37.022Z,92.14
2017-12-23T10:59:39.516Z,92.12
2017-12-23T11:00:41.982Z,91.91
2017-12-23T11:01:44.442Z,91.68
2017-12-23T11:02:46.921Z,91.60
2017-12-23T11:03:49.383Z,91.93
2017-12-23T11:04:51.876Z,91.89
2017-12-23T11:05:54.334Z,91.94
2017-12-23T11:06:56.809Z,91.83
2017-12-23T11:07:59.276Z,91.84
2017-12-23T11:09:01.750Z,91.70
2017-12-23T11:10:04.236Z,91.52
2017-12-23T11:11:06.694Z,91.59
2017-12-23T11:12:09.184Z,91.46
2017-12-23T11:13:11.638Z,91.33
2017-12-23T11:14:14.104Z,91.46
2017-12-23T11:15:16.607Z,91.30
2017-12-23T11:16:19.064Z,91.23
2017-12-23T11:17:21.521Z,91.18
2017-12-23T11:18:23.974Z,91.08
2017-12-23T11:19:26.427Z,91.13
2017-12-23T11:20:28.910Z,91.09
2017-12-23T11:21:31.394Z,91.10
2017-12-23T11:22:33.859Z,91.07
2017-12-23T11:23:36.334Z,91.04
2017-12-23T11:24:38.958Z,90.40
2017-12-23T11:25:41.434Z,90.11
2017-12-23T11:26:43.905Z,90.26
2017-12-23T11:27:46.372Z,90.10
2017-12-23T11:28:48.824Z,89.87
2017-12-23T11:29:51.301Z,89.79
2017-12-23T11:30:53.805Z,89.83
2017-12-23T11:31:56.275Z,89.56
2017-12-23T11:32:58.740Z,89.55
2017-12-23T11:34:01.206Z,88.80
2017-12-23T11:35:03.668Z,88.82
2017-12-23T11:36:06.142Z,88.72
2017-12-23T11:37:08.608Z,88.46
2017-12-23T11:38:11.062Z,89.04
2017-12-23T11:39:13.515Z,88.78
2017-12-23T11:40:15.971Z,88.67
2017-12-23T11:41:18.461Z,88.18
2017-12-23T11:42:20.928Z,88.12
2017-12-23T11:43:23.380Z,88.42
2017-12-23T11:44:25.849Z,88.51
2017-12-23T11:45:28.303Z,88.72
2017-12-23T11:46:30.795Z,89.09
2017-12-23T11:47:33.255Z,89.41
2017-12-23T11:48:35.774Z,88.86
2017-12-23T11:49:38.231Z,88.81
2017-12-23T11:50:40.715Z,88.97
2017-12-23T11:51:43.186Z,89.16
2017-12-23T11:52:45.652Z,89.24
2017-12-23T11:53:48.121Z,89.44
2017-12-23T11:54:50.570Z,89.52
2017-12-23T11:55:53.032Z,89.78
2017-12-23T11:56:55.525Z,89.94
2017-12-23T11:57:58.001Z,90.37
2017-12-23T11:59:00.489Z,90.32
2017-12-23T12:00:02.943Z,90.40
2017-12-23T12:01:05.412Z,89.87
2017-12-23T12:02:07.890Z,89.56
2017-12-23T12:03:10.364Z,89.39
2017-12-23T12:04:12.814Z,88.95
2017-12-23T12:05:15.276Z,88.71
2017-12-23T12:06:17.741Z,88.29
2017-12-23T12:07:20.229Z,88.33
2017-12-23T12:08:22.693Z,88.44
2017-12-23T12:09:25.157Z,88.04
2017-12-23T12:10:27.606Z,88.19
2017-12-23T12:11:30.059Z,88.28
2017-12-23T12:12:32.535Z,88.05
2017-12-23T12:13:35.001Z,87.45
2017-12-23T12:14:37.451Z,87.53
2017-12-23T12:15:39.930Z,87.38
2017-12-23T12:16:42.386Z,87.31
2017-12-23T12:17:44.874Z,87.48
2017-12-23T12:18:47.324Z,86.92
2017-12-23T12:19:49.787Z,87.15
2017-12-23T12:20:52.261Z,87.09
2017-12-23T12:21:54.731Z,86.85
2017-12-23T12:22:57.217Z,86.52
2017-12-23T12:23:59.675Z,86.81
2017-12-23T12:25:02.144Z,86.96
2017-12-23T12:26:04.625Z,86.52
2017-12-23T12:27:07.082Z,87.16
2017-12-23T12:28:09.568Z,86.92
2017-12-23T12:29:12.041Z,87.10
2017-12-23T12:30:14.505Z,86.61
2017-12-23T12:31:16.967Z,86.20
2017-12-23T12:32:19.442Z,86.42
2017-12-23T12:33:21.909Z,86.66
2017-12-23T12:34:24.385Z,86.54
2017-12-23T12:35:26.860Z,86.69
2017-12-23T12:36:29.348Z,86.79
2017-12-23T12:37:31.817Z,87.37
2017-12-23T12:38:34.314Z,86.94
2017-12-23T12:39:36.792Z,86.64
2017-12-23T12:40:39.256Z,87.00
2017-12-23T12:41:41.829Z,87.04
2017-12-23T12:42:44.390Z,87.07
2017-12-23T12:43:46.941Z,87.94
2017-12-23T12:44:49.418Z,87.50
2017-12-23T12:45:51.883Z,87.43
2017-12-23T12:46:54.357Z,87.08
2017-12-23T12:47:56.803Z,87.07
2017-12-23T12:48:59.284Z,87.26
2017-12-23T12:50:01.732Z,86.96
2017-12-23T12:51:04.209Z,86.66
2017-12-23T12:52:06.662Z,87.38
2017-12-23T12:53:09.130Z,87.32
2017-12-23T12:54:11.617Z,87.61
2017-12-23T12:55:14.082Z,87.34
2017-12-23T12:56:16.653Z,87.29
2017-12-23T12:57:19.106Z,87.80
2017-12-23T12:58:21.585Z,87.58
2017-12-23T12:59:24.058Z,87.54
2017-12-23T13:00:26.544Z,88.02
2017-12-23T13:01:28.994Z,87.67
2017-12-23T13:02:31.446Z,87.23
2017-12-23T13:03:33.899Z,86.99
2017-12-23T13:04:36.370Z,87.06
2017-12-23T13:05:38.849Z,87.36
2017-12-23T13:06:41.310Z,87.40
2017-12-23T13:07:43.824Z,87.85
2017-12-23T13:08:46.292Z,87.84
2017-12-23T13:09:48.762Z,87.70
2017-12-23T13:10:51.233Z,87.90
2017-12-23T13:11:53.696Z,88.22
2017-12-23T13:12:56.160Z,88.01
2017-12-23T13:13:58.628Z,88.23
2017-12-23T13:15:01.102Z,88.19
2017-12-23T13:16:03.569Z,88.64
2017-12-23T13:17:06.044Z,87.99
2017-12-23T13:18:08.571Z,87.54
2017-12-23T13:19:11.110Z,87.69
2017-12-23T13:20:13.578Z,87.96
2017-12-23T13:21:16.042Z,87.64
2017-12-23T13:22:18.490Z,87.41
2017-12-23T13:23:20.961Z,87.71
2017-12-23T13:24:23.428Z,87.65